.
WxDataArchive / Data Records for 2006-11-26
2006-11-25 November 2006 2006-11-27

Data Records for Sunday, 26 November 2006

Time	Temp	Chill	HIndex	Humid	Dewpt	 Wind 	HiWind	WindDir	Rain 	Barom 
-----	----	-----	------	-----	-----	------	------	-------	-----	----- 
00:00	49.8	49.8	49.8	80	43.9	0	1	225	0.00	30.102 
00:05	49.9	49.9	49.9	80	44.0	0	1	225	0.00	30.102 
00:10	49.9	49.9	49.9	80	44.0	0	1	225	0.00	30.102 
00:15	49.9	49.9	49.9	79	43.6	0	1	225	0.00	30.098 
00:20	49.9	49.9	49.9	79	43.6	0	1	225	0.00	30.098 
00:25	49.9	49.9	49.9	79	43.6	0	1	225	0.00	30.098 
00:30	49.9	49.9	49.9	79	43.6	0	1	225	0.00	30.102 
00:35	49.8	49.8	49.8	79	43.6	0	0	---	0.00	30.102 
00:40	49.6	49.6	49.6	79	43.4	0	1	225	0.00	30.102 
00:45	49.8	49.8	49.8	78	43.2	0	1	225	0.00	30.098 
00:50	49.8	49.8	49.8	78	43.2	0	1	225	0.00	30.098 
00:55	49.9	49.9	49.9	77	43.0	0	1	225	0.00	30.098 
01:00	49.8	49.8	49.8	77	42.9	0	1	225	0.00	30.099 
01:05	49.8	49.8	49.8	77	42.9	0	0	---	0.00	30.099 
01:10	49.8	49.8	49.8	77	42.9	0	1	225	0.00	30.099 
01:15	49.6	49.6	49.6	76	42.3	0	1	225	0.00	30.095 
01:20	49.6	49.6	49.6	76	42.3	0	0	---	0.00	30.095 
01:25	49.5	49.5	49.5	76	42.3	0	1	225	0.00	30.095 
01:30	49.4	49.4	49.4	76	42.2	0	0	---	0.00	30.107 
01:35	49.2	49.2	49.2	76	42.0	0	2	225	0.00	30.107 
01:40	49.2	49.2	49.2	75	41.6	0	1	225	0.00	30.107 
01:45	49.2	49.2	49.2	75	41.6	0	1	225	0.00	30.110 
01:50	49.1	49.1	49.1	75	41.5	0	1	225	0.00	30.110 
01:55	49.1	49.1	49.1	74	41.2	0	1	225	0.00	30.110 
02:00	49.1	49.1	49.1	74	41.2	0	1	225	0.00	30.105 
02:05	49.1	49.1	49.1	73	40.8	0	1	225	0.00	30.105 
02:10	48.9	48.9	48.9	73	40.6	0	2	225	0.00	30.105 
02:15	48.9	48.9	48.9	73	40.6	0	1	225	0.00	30.107 
02:20	48.9	48.9	48.9	72	40.3	0	1	225	0.00	30.107 
02:25	48.8	48.8	48.8	72	40.2	0	1	225	0.00	30.107 
02:30	48.5	48.5	48.5	70	39.2	0	1	225	0.00	30.101 
02:35	48.3	48.3	48.3	70	39.0	0	1	225	0.00	30.101 
02:40	48.3	48.3	48.3	70	39.0	0	2	225	0.00	30.101 
02:45	48.2	48.2	48.2	70	38.9	0	1	225	0.00	30.113 
02:50	48.0	48.0	48.0	70	38.7	0	1	225	0.00	30.113 
02:55	47.9	47.9	47.9	70	38.6	0	1	225	0.00	30.113 
03:00	47.6	47.6	47.6	70	38.3	0	1	225	0.00	30.114 
03:05	47.4	47.4	47.4	69	37.7	0	1	225	0.00	30.114 
03:10	47.3	47.3	47.3	69	37.7	0	2	225	0.00	30.114 
03:15	47.1	47.1	47.1	69	37.5	0	1	225	0.00	30.117 
03:20	47.0	47.0	47.0	69	37.4	0	0	---	0.00	30.117 
03:25	46.8	46.8	46.8	69	37.2	0	0	---	0.00	30.117 
03:30	46.5	46.5	46.5	69	36.9	0	0	---	0.00	30.118 
03:35	46.4	46.4	46.4	69	36.8	0	1	225	0.00	30.118 
03:40	46.2	46.2	46.2	69	36.6	0	1	225	0.00	30.118 
03:45	46.4	46.4	46.4	69	36.8	0	2	225	0.00	30.119 
03:50	46.2	46.2	46.2	69	36.6	0	2	225	0.00	30.119 
03:55	46.2	46.2	46.2	69	36.6	0	1	225	0.00	30.119 
04:00	46.2	46.2	46.2	69	36.6	0	1	225	0.00	30.119 
04:05	46.1	46.1	46.1	69	36.5	0	1	225	0.00	30.119 
04:10	46.0	46.0	46.0	69	36.4	0	0	---	0.00	30.119 
04:15	45.8	45.8	45.8	69	36.2	0	1	225	0.00	30.121 
04:20	45.8	45.8	45.8	69	36.2	0	1	225	0.00	30.121 
04:25	45.7	45.7	45.7	69	36.1	0	1	225	0.00	30.121 
04:30	45.5	45.5	45.5	69	35.9	0	1	225	0.00	30.120 
04:35	45.5	45.5	45.5	69	35.9	0	1	225	0.00	30.120 
04:40	45.7	45.7	45.7	69	36.1	0	1	225	0.00	30.120 
04:45	45.8	45.8	45.8	69	36.2	0	2	225	0.00	30.120 
04:50	46.1	46.1	46.1	68	36.1	0	3	248	0.00	30.120 
04:55	46.2	46.2	46.2	67	35.9	0	2	248	0.00	30.120 
05:00	46.2	46.2	46.2	67	35.9	0	2	248	0.00	30.121 
05:05	46.1	46.1	46.1	67	35.8	0	1	248	0.00	30.121 
05:10	46.0	46.0	46.0	68	36.0	0	1	248	0.00	30.121 
05:15	45.7	45.7	45.7	68	35.8	0	1	248	0.00	30.122 
05:20	45.4	45.4	45.4	69	35.8	0	1	248	0.00	30.122 
05:25	45.2	45.2	45.2	69	35.6	0	0	---	0.00	30.122 
05:30	44.9	44.9	44.9	69	35.4	0	0	---	0.00	30.127 
05:35	44.6	44.6	44.6	69	35.1	0	0	---	0.00	30.127 
05:40	44.5	44.5	44.5	70	35.3	0	1	248	0.00	30.127 
05:45	44.3	44.3	44.3	70	35.1	0	0	---	0.00	30.128 
05:50	44.2	44.2	44.2	70	35.0	0	0	---	0.00	30.128 
05:55	44.1	44.1	44.1	71	35.3	0	0	---	0.00	30.128 
06:00	43.9	43.9	43.9	71	35.1	0	0	---	0.00	30.129 
06:05	43.8	43.8	43.8	71	35.0	0	0	---	0.00	30.129 
06:10	43.6	43.6	43.6	71	34.8	0	0	---	0.00	30.129 
06:15	43.3	43.3	43.3	72	34.9	0	0	---	0.00	30.135 
06:20	43.2	43.2	43.2	73	35.1	0	1	248	0.00	30.135 
06:25	43.1	43.1	43.1	73	35.0	0	0	---	0.00	30.135 
06:30	43.1	43.1	43.1	73	35.0	0	0	---	0.00	30.142 
06:35	43.2	43.2	43.2	73	35.1	0	1	248	0.00	30.142 
06:40	43.3	43.3	43.3	73	35.2	0	1	248	0.00	30.142 
06:45	43.6	43.6	43.6	72	35.2	0	1	248	0.00	30.143 
06:50	43.8	43.8	43.8	72	35.4	0	1	248	0.00	30.143 
06:55	44.1	44.1	44.1	72	35.7	0	1	248	0.00	30.143 
07:00	44.2	44.2	44.2	71	35.4	0	1	248	0.00	30.146 
07:05	44.3	44.3	44.3	71	35.5	0	1	248	0.00	30.146 
07:10	44.3	44.3	44.3	71	35.5	0	1	248	0.00	30.146 
07:15	44.3	44.3	44.3	71	35.5	0	1	248	0.00	30.150 
07:20	44.2	44.2	44.2	72	35.8	0	1	248	0.00	30.150 
07:25	44.1	44.1	44.1	72	35.7	0	1	248	0.00	30.150 
07:30	44.2	44.2	44.2	72	35.8	0	1	248	0.00	30.153 
07:35	44.2	44.2	44.2	72	35.8	0	1	248	0.00	30.153 
07:40	44.1	44.1	44.1	73	36.0	0	1	248	0.00	30.153 
07:45	43.9	43.9	43.9	73	35.8	0	1	248	0.00	30.157 
07:50	43.9	43.9	43.9	74	36.2	0	1	248	0.00	30.157 
07:55	43.9	43.9	43.9	74	36.2	0	1	248	0.00	30.157 
08:00	44.1	44.1	44.1	74	36.4	0	2	248	0.00	30.160 
08:05	44.5	44.5	44.5	73	36.4	0	2	248	0.00	30.160 
08:10	44.6	44.6	44.6	73	36.5	0	1	248	0.00	30.160 
08:15	44.6	44.6	44.6	73	36.5	0	1	248	0.00	30.157 
08:20	44.6	44.6	44.6	73	36.5	0	1	248	0.00	30.157 
08:25	44.8	44.8	44.8	73	36.7	0	1	248	0.00	30.157 
08:30	44.8	44.8	44.8	74	37.0	0	1	248	0.00	30.160 
08:35	44.8	44.8	44.8	74	37.0	0	0	---	0.00	30.160 
08:40	44.8	44.8	44.8	74	37.0	0	0	---	0.00	30.160 
08:45	44.9	44.9	44.9	74	37.1	0	1	248	0.00	30.167 
08:50	45.1	45.1	45.1	74	37.3	0	1	248	0.00	30.167 
08:55	45.5	45.5	45.5	75	38.0	0	0	---	0.00	30.167 
09:00	45.8	45.8	45.8	74	38.0	0	1	248	0.00	30.171 
09:05	46.2	46.2	46.2	73	38.0	0	1	248	0.00	30.171 
09:10	46.5	46.5	46.5	73	38.3	0	1	248	0.00	30.171 
09:15	47.0	47.0	47.0	73	38.8	0	1	248	0.00	30.172 
09:20	47.3	47.3	47.3	72	38.7	0	2	248	0.00	30.172 
09:25	47.7	47.7	47.7	72	39.1	0	1	248	0.00	30.172 
09:30	48.2	48.2	48.2	71	39.2	0	2	248	0.00	30.174 
09:35	48.6	48.6	48.6	70	39.3	0	1	248	0.00	30.174 
09:40	49.2	49.2	49.2	69	39.5	0	3	248	0.00	30.174 
09:45	49.6	49.6	49.6	68	39.5	1	3	225	0.00	30.178 
09:50	50.2	50.2	50.2	67	39.7	1	3	225	0.00	30.178 
09:55	50.8	50.8	50.8	65	39.5	2	6	248	0.00	30.178 
10:00	51.6	51.6	51.6	64	39.8	2	5	248	0.00	30.182 
10:05	52.0	52.0	52.0	63	39.8	3	6	248	0.00	30.182 
10:10	52.5	52.5	52.5	63	40.3	2	5	248	0.00	30.182 
10:15	52.9	52.9	52.9	62	40.2	3	7	248	0.00	30.182 
10:20	53.2	53.2	53.2	62	40.5	2	7	248	0.00	30.182 
10:25	53.6	53.6	53.6	61	40.5	3	7	248	0.00	30.182 
10:30	53.9	53.9	53.9	61	40.8	2	5	248	0.00	30.185 
10:35	54.2	54.2	54.2	61	41.0	3	6	248	0.00	30.185 
10:40	54.5	54.5	54.5	60	40.9	2	6	248	0.00	30.185 
10:45	54.8	54.8	54.8	59	40.7	2	5	248	0.00	30.180 
10:50	55.0	55.0	55.0	60	41.4	2	7	248	0.00	30.180 
10:55	55.0	55.0	55.0	60	41.4	2	5	248	0.00	30.180 
11:00	55.0	55.0	55.0	59	40.9	1	5	248	0.00	30.182 
11:05	55.0	55.0	55.0	59	40.9	2	5	248	0.00	30.182 
11:10	55.0	55.0	55.0	60	41.4	2	6	248	0.00	30.182 
11:15	55.0	55.0	55.0	60	41.4	2	5	248	0.00	30.188 
11:20	55.0	55.0	55.0	61	41.8	2	7	248	0.00	30.188 
11:25	55.3	55.3	55.3	61	42.1	1	6	248	0.00	30.188 
11:30	55.6	55.6	55.6	60	41.9	2	7	248	0.00	30.182 
11:35	55.7	55.7	55.7	59	41.6	2	7	248	0.00	30.182 
11:40	55.9	55.9	55.9	59	41.8	2	6	248	0.00	30.182 
11:45	56.2	56.2	56.2	59	42.1	2	6	248	0.00	30.181 
11:50	56.5	56.5	56.5	59	42.3	2	4	248	0.00	30.181 
11:55	56.7	56.7	56.7	59	42.5	3	6	248	0.00	30.181 
12:00	56.9	56.9	56.9	60	43.2	2	6	248	0.00	30.179 
12:05	57.2	57.2	57.2	60	43.4	1	5	248	0.00	30.179 
12:10	57.5	57.5	57.5	58	42.8	2	4	248	0.00	30.179 
12:15	57.6	57.6	57.6	58	42.9	2	5	248	0.00	30.169 
12:20	58.0	58.0	58.0	58	43.3	2	6	248	0.00	30.169 
12:25	58.1	58.1	58.1	58	43.4	2	6	248	0.00	30.169 
12:30	58.4	58.4	58.4	58	43.7	3	6	248	0.00	30.167 
12:35	58.7	58.7	58.7	58	44.0	3	6	248	0.00	30.167 
12:40	58.9	58.9	58.9	58	44.1	2	6	248	0.00	30.167 
12:45	59.2	59.2	59.2	57	44.0	2	5	248	0.00	30.164 
12:50	59.2	59.2	59.2	58	44.4	3	6	248	0.00	30.164 
12:55	59.5	59.5	59.5	57	44.3	2	6	248	0.00	30.164 
13:00	59.5	59.5	59.5	56	43.8	3	9	248	0.00	30.161 
13:05	59.8	59.8	59.8	56	44.1	3	7	248	0.00	30.161 
13:10	59.9	59.9	59.9	56	44.2	2	7	270	0.00	30.161 
13:15	59.9	59.9	59.9	58	45.1	2	6	248	0.00	30.159 
13:20	60.2	60.2	60.2	57	44.9	1	4	248	0.00	30.159 
13:25	60.4	60.4	60.4	57	45.1	1	3	248	0.00	30.159 
13:30	60.5	60.5	60.5	58	45.6	2	5	225	0.00	30.156 
13:35	60.4	60.4	60.4	56	44.6	3	7	248	0.00	30.156 
13:40	60.4	60.4	60.4	57	45.1	1	4	248	0.00	30.156 
13:45	60.5	60.5	60.5	58	45.6	1	5	248	0.00	30.152 
13:50	60.4	60.4	60.4	57	45.1	2	5	248	0.00	30.152 
13:55	60.1	60.1	60.1	59	45.7	1	4	248	0.00	30.152 
14:00	59.9	59.9	59.9	59	45.5	1	5	248	0.00	30.151 
14:05	59.8	59.8	59.8	60	45.9	1	4	248	0.00	30.151 
14:10	59.8	59.8	59.8	60	45.9	1	4	225	0.00	30.151 
14:15	59.8	59.8	59.8	60	45.9	1	4	112	0.00	30.147 
14:20	59.9	59.9	59.9	60	46.0	1	2	45	0.00	30.147 
14:25	59.9	59.9	59.9	61	46.4	1	2	338	0.00	30.147 
14:30	59.9	59.9	59.9	61	46.4	1	4	270	0.00	30.146 
14:35	59.9	59.9	59.9	61	46.4	2	5	248	0.00	30.146 
14:40	59.9	59.9	59.9	60	46.0	1	4	248	0.00	30.146 
14:45	59.9	59.9	59.9	60	46.0	1	3	248	0.00	30.148 
14:50	60.1	60.1	60.1	59	45.7	3	6	248	0.00	30.148 
14:55	60.2	60.2	60.2	60	46.3	2	5	248	0.00	30.148 
15:00	60.2	60.2	60.2	60	46.3	2	4	248	0.00	30.148 
15:05	60.2	60.2	60.2	61	46.7	1	3	270	0.00	30.148 
15:10	60.2	60.2	60.2	62	47.1	1	4	248	0.00	30.148 
15:15	60.1	60.1	60.1	60	46.2	1	4	248	0.00	30.148 
15:20	60.1	60.1	60.1	61	46.6	0	3	225	0.00	30.148 
15:25	60.1	60.1	60.1	61	46.6	0	3	90	0.00	30.148 
15:30	60.1	60.1	60.1	62	47.0	0	3	68	0.00	30.147 
15:35	60.1	60.1	60.1	61	46.6	1	3	248	0.00	30.147 
15:40	60.1	60.1	60.1	62	47.0	0	2	248	0.00	30.147 
15:45	59.9	59.9	59.9	62	46.8	0	1	248	0.00	30.148 
15:50	59.8	59.8	59.8	62	46.8	0	2	248	0.00	30.148 
15:55	59.5	59.5	59.5	63	46.9	0	3	248	0.00	30.148 
16:00	59.3	59.3	59.3	62	46.3	0	1	248	0.00	30.149 
16:05	59.3	59.3	59.3	62	46.3	0	2	248	0.00	30.149 
16:10	59.2	59.2	59.2	62	46.2	0	1	248	0.00	30.149 
16:15	59.2	59.2	59.2	62	46.2	0	1	248	0.00	30.153 
16:20	59.0	59.0	59.0	62	46.0	0	1	248	0.00	30.153 
16:25	58.9	58.9	58.9	62	45.9	0	1	248	0.00	30.153 
16:30	58.9	58.9	58.9	62	45.9	0	1	248	0.00	30.153 
16:35	58.6	58.6	58.6	62	45.6	0	0	---	0.00	30.153 
16:40	58.4	58.4	58.4	62	45.4	0	1	248	0.00	30.153 
16:45	58.1	58.1	58.1	62	45.1	0	0	---	0.00	30.158 
16:50	57.8	57.8	57.8	62	44.9	0	0	---	0.00	30.158 
16:55	57.3	57.3	57.3	63	44.8	0	1	248	0.00	30.158 
17:00	57.0	57.0	57.0	63	44.5	0	0	---	0.00	30.164 
17:05	56.6	56.6	56.6	63	44.2	0	0	---	0.00	30.164 
17:10	56.3	56.3	56.3	64	44.3	0	0	---	0.00	30.164 
17:15	55.9	55.9	55.9	65	44.3	0	0	---	0.00	30.167 
17:20	55.6	55.6	55.6	65	44.0	0	1	248	0.00	30.167 
17:25	55.3	55.3	55.3	65	43.7	0	0	---	0.00	30.167 
17:30	55.1	55.1	55.1	65	43.5	0	0	---	0.00	30.171 
17:35	54.8	54.8	54.8	65	43.3	0	1	248	0.00	30.171 
17:40	54.7	54.7	54.7	66	43.6	0	0	---	0.00	30.171 
17:45	54.5	54.5	54.5	66	43.4	0	1	248	0.00	30.171 
17:50	54.2	54.2	54.2	66	43.1	0	0	---	0.00	30.171 
17:55	54.1	54.1	54.1	67	43.4	0	0	---	0.00	30.171 
18:00	53.8	53.8	53.8	67	43.1	0	0	---	0.00	30.171 
18:05	53.6	53.6	53.6	67	42.9	0	0	---	0.00	30.171 
18:10	53.3	53.3	53.3	68	43.0	0	0	---	0.00	30.171 
18:15	53.2	53.2	53.2	68	42.9	0	0	---	0.00	30.173 
18:20	52.9	52.9	52.9	69	43.0	0	0	---	0.00	30.173 
18:25	52.5	52.5	52.5	69	42.6	0	0	---	0.00	30.173 
18:30	52.2	52.2	52.2	70	42.7	0	0	---	0.00	30.174 
18:35	51.9	51.9	51.9	71	42.8	0	0	---	0.00	30.174 
18:40	51.4	51.4	51.4	72	42.7	0	0	---	0.00	30.174 
18:45	51.1	51.1	51.1	73	42.7	0	0	---	0.00	30.175 
18:50	50.8	50.8	50.8	73	42.5	0	0	---	0.00	30.175 
18:55	50.5	50.5	50.5	74	42.5	0	0	---	0.00	30.175 
19:00	50.2	50.2	50.2	74	42.2	0	0	---	0.00	30.174 
19:05	50.1	50.1	50.1	75	42.5	0	0	---	0.00	30.174 
19:10	50.2	50.2	50.2	75	42.6	0	0	---	0.00	30.174 
19:15	50.2	50.2	50.2	75	42.6	0	0	---	0.00	30.176 
19:20	50.4	50.4	50.4	75	42.8	0	0	---	0.00	30.176 
19:25	50.2	50.2	50.2	76	42.9	0	0	---	0.00	30.176 
19:30	50.1	50.1	50.1	76	42.8	0	0	---	0.00	30.187 
19:35	49.9	49.9	49.9	76	42.6	0	0	---	0.00	30.187 
19:40	49.8	49.8	49.8	77	42.9	0	0	---	0.00	30.187 
19:45	49.6	49.6	49.6	77	42.7	0	0	---	0.00	30.189 
19:50	49.5	49.5	49.5	78	42.9	0	0	---	0.00	30.189 
19:55	49.2	49.2	49.2	79	43.0	0	0	---	0.00	30.189 
20:00	49.1	49.1	49.1	79	42.9	0	0	---	0.00	30.192 
20:05	48.8	48.8	48.8	80	42.9	0	0	---	0.00	30.192 
20:10	48.5	48.5	48.5	80	42.6	0	0	---	0.00	30.192 
20:15	48.2	48.2	48.2	81	42.6	0	0	---	0.00	30.192 
20:20	47.9	47.9	47.9	81	42.4	0	0	---	0.00	30.192 
20:25	47.6	47.6	47.6	82	42.4	0	0	---	0.00	30.192 
20:30	47.3	47.3	47.3	83	42.4	0	0	---	0.00	30.192 
20:35	47.0	47.0	47.0	83	42.1	0	0	---	0.00	30.192 
20:40	46.7	46.7	46.7	84	42.1	0	0	---	0.00	30.192 
20:45	46.7	46.7	46.7	85	42.4	0	0	---	0.00	30.190 
20:50	47.0	47.0	47.0	84	42.4	0	0	---	0.00	30.190 
20:55	47.1	47.1	47.1	84	42.5	0	0	---	0.00	30.190 
21:00	47.1	47.1	47.1	84	42.5	0	0	---	0.00	30.187 
21:05	47.4	47.4	47.4	84	42.8	0	0	---	0.00	30.187 
21:10	47.6	47.6	47.6	84	43.0	0	0	---	0.00	30.187 
21:15	47.6	47.6	47.6	84	43.0	0	0	---	0.00	30.182 
21:20	47.6	47.6	47.6	84	43.0	0	0	---	0.00	30.182 
21:25	47.6	47.6	47.6	84	43.0	0	0	---	0.00	30.182 
21:30	47.7	47.7	47.7	84	43.1	0	0	---	0.00	30.182 
21:35	47.9	47.9	47.9	84	43.3	0	0	---	0.00	30.182 
21:40	47.9	47.9	47.9	84	43.3	0	0	---	0.00	30.182 
21:45	48.0	48.0	48.0	84	43.4	0	0	---	0.00	30.183 
21:50	48.0	48.0	48.0	83	43.1	0	0	---	0.00	30.183 
21:55	48.2	48.2	48.2	84	43.6	0	1	248	0.00	30.183 
22:00	48.3	48.3	48.3	84	43.7	0	1	248	0.00	30.181 
22:05	48.3	48.3	48.3	84	43.7	0	0	---	0.00	30.181 
22:10	48.6	48.6	48.6	84	44.0	0	2	248	0.00	30.181 
22:15	48.9	48.9	48.9	83	44.0	0	1	248	0.00	30.169 
22:20	49.4	49.4	49.4	83	44.5	0	1	248	0.00	30.169 
22:25	49.8	49.8	49.8	82	44.5	0	1	248	0.00	30.169 
22:30	50.2	50.2	50.2	82	44.9	0	1	248	0.00	30.166 
22:35	50.5	50.5	50.5	81	44.9	0	2	248	0.00	30.166 
22:40	51.0	51.0	51.0	81	45.4	0	2	292	0.00	30.166 
22:45	51.3	51.3	51.3	80	45.3	1	3	270	0.00	30.160 
22:50	51.6	51.6	51.6	79	45.3	1	4	248	0.00	30.160 
22:55	51.6	51.6	51.6	79	45.3	1	4	22	0.00	30.160 
23:00	51.7	51.7	51.7	79	45.4	0	2	248	0.00	30.157 
23:05	51.6	51.6	51.6	79	45.3	0	2	248	0.00	30.157 
23:10	51.6	51.6	51.6	79	45.3	0	2	248	0.00	30.157 
23:15	51.6	51.6	51.6	79	45.3	1	4	248	0.00	30.154 
23:20	51.6	51.6	51.6	79	45.3	0	3	225	0.00	30.154 
23:25	51.7	51.7	51.7	79	45.4	0	3	248	0.00	30.154 
23:30	51.7	51.7	51.7	79	45.4	0	2	248	0.00	30.161 
23:35	51.7	51.7	51.7	79	45.4	0	2	248	0.00	30.161 
23:40	51.6	51.6	51.6	79	45.3	0	2	270	0.00	30.161 
23:45	51.6	51.6	51.6	79	45.3	1	3	248	0.00	30.166 
23:50	51.4	51.4	51.4	79	45.1	0	2	248	0.00	30.166 
23:55	51.4	51.4	51.4	79	45.1	1	2	248	0.00	30.166 

CoCoRaHS
IN-AL-39
A2 Web Hosting
Creative Commons License
GoDaddy
Look for:

loaded 2017-12-12 07:22:33 • last modified 2010-11-18 10:43:29
Privacy PolicyDisclaimer
• wx.awcolley.com is powered by PmWiki v.2002016 •
• all content (unless otherwise noted) © 2017 A W Colley